createdAt,value
2023-01-11T00:01:10.109Z,1.00
2023-01-11T00:03:37.859Z,0.00
2023-01-11T00:06:07.462Z,0.00
2023-01-11T00:08:53.292Z,1.30
2023-01-11T00:11:21.132Z,0.00
2023-01-11T00:13:49.091Z,0.20
2023-01-11T00:16:17.522Z,0.10
2023-01-11T00:18:45.502Z,0.00
2023-01-11T00:21:14.888Z,0.10
2023-01-11T00:23:45.118Z,0.00
2023-01-11T00:26:13.369Z,0.10
2023-01-11T00:28:41.719Z,1.80
2023-01-11T00:31:10.708Z,0.40
2023-01-11T00:33:46.387Z,1.60
2023-01-11T00:36:34.290Z,0.10
2023-01-11T00:39:27.590Z,0.20
2023-01-11T00:42:14.881Z,0.00
2023-01-11T00:45:09.079Z,0.10
2023-01-11T00:47:55.513Z,0.00
2023-01-11T00:50:35.735Z,0.40
2023-01-11T00:53:03.946Z,0.00
2023-01-11T00:55:31.838Z,0.20
2023-01-11T00:58:00.488Z,0.00
2023-01-11T01:00:33.210Z,0.10
2023-01-11T01:03:01.735Z,0.00
2023-01-11T01:05:29.672Z,0.10
2023-01-11T01:07:57.414Z,0.20
2023-01-11T01:10:24.941Z,0.00
2023-01-11T01:13:11.245Z,0.50
2023-01-11T01:15:42.440Z,0.40
2023-01-11T01:18:09.813Z,0.60
2023-01-11T01:20:38.169Z,0.00
2023-01-11T01:26:13.478Z,0.20
2023-01-11T01:28:47.286Z,0.10
2023-01-11T01:31:30.703Z,0.10
2023-01-11T01:34:08.529Z,0.00
2023-01-11T01:36:45.156Z,3.30
2023-01-11T01:39:14.116Z,0.00
2023-01-11T01:42:03.689Z,0.10
2023-01-11T01:44:59.010Z,0.10
2023-01-11T01:47:42.183Z,0.10
2023-01-11T01:50:48.967Z,0.00
2023-01-11T01:53:43.781Z,0.80
2023-01-11T01:56:28.855Z,0.70
2023-01-11T01:59:09.403Z,0.10
2023-01-11T02:01:59.317Z,0.40
2023-01-11T02:04:43.529Z,0.00
2023-01-11T02:07:23.940Z,0.20
2023-01-11T02:10:12.670Z,0.00
2023-01-11T02:13:06.998Z,34.30
2023-01-11T02:15:40.282Z,33.80
2023-01-11T02:18:15.023Z,33.80
2023-01-11T02:21:11.036Z,35.10
2023-01-11T02:24:01.701Z,35.20
2023-01-11T02:27:11.322Z,31.90
2023-01-11T02:30:30.011Z,34.50
2023-01-11T02:33:40.303Z,37.60
2023-01-11T02:36:38.557Z,35.50
2023-01-11T02:39:40.632Z,37.10
2023-01-11T02:43:23.982Z,30.60
2023-01-11T02:46:33.071Z,32.60
2023-01-11T02:52:50.696Z,35.50
2023-01-11T02:55:27.292Z,37.90
2023-01-11T02:58:02.560Z,38.10
2023-01-11T03:00:37.570Z,42.40
2023-01-11T03:03:14.000Z,43.10
2023-01-11T03:06:00.770Z,41.10
2023-01-11T03:09:13.493Z,38.20
2023-01-11T03:12:57.563Z,38.60
2023-01-11T03:15:56.564Z,33.20
2023-01-11T03:18:51.656Z,37.30
2023-01-11T03:21:50.940Z,41.60
2023-01-11T03:24:51.784Z,37.50
2023-01-11T03:27:42.584Z,38.40
2023-01-11T03:30:27.237Z,37.00
2023-01-11T03:33:06.861Z,39.90
2023-01-11T03:36:14.291Z,41.90
2023-01-11T03:38:53.512Z,40.50
2023-01-11T03:41:28.173Z,41.80
2023-01-11T03:44:00.597Z,40.70
2023-01-11T03:46:38.910Z,31.80
2023-01-11T03:49:26.596Z,34.40
2023-01-11T03:51:57.347Z,33.20
2023-01-11T03:54:32.860Z,27.20
2023-01-11T03:57:22.764Z,36.60
2023-01-11T03:59:52.298Z,35.60
2023-01-11T04:02:48.346Z,36.50
2023-01-11T04:05:17.331Z,38.90
2023-01-11T04:07:46.303Z,29.50
2023-01-11T04:10:15.477Z,16.50
2023-01-11T04:12:49.873Z,37.00
2023-01-11T04:15:30.503Z,29.50
2023-01-11T04:18:06.872Z,37.10
2023-01-11T04:20:45.453Z,35.90
2023-01-11T04:23:23.643Z,36.00
2023-01-11T04:26:03.008Z,37.90
2023-01-11T04:28:32.131Z,41.90
2023-01-11T04:31:08.726Z,39.50
2023-01-11T04:33:45.825Z,32.60
2023-01-11T04:36:16.072Z,36.30
2023-01-11T04:38:48.029Z,37.30
2023-01-11T04:41:38.735Z,34.90
2023-01-11T04:44:19.178Z,37.90
2023-01-11T04:46:51.016Z,39.90
2023-01-11T04:49:20.131Z,33.40
2023-01-11T04:51:49.304Z,38.20
2023-01-11T04:54:18.543Z,40.20
2023-01-11T04:56:50.588Z,41.30
2023-01-11T04:59:19.831Z,43.10
2023-01-11T05:01:49.112Z,38.70
2023-01-11T05:04:27.146Z,38.20
2023-01-11T05:07:00.703Z,29.00
2023-01-11T05:09:35.603Z,23.00
2023-01-11T05:12:04.981Z,39.10
2023-01-11T05:14:34.334Z,29.40
2023-01-11T05:17:19.234Z,15.80
2023-01-11T05:19:52.765Z,17.40
2023-01-11T05:22:23.495Z,13.90
2023-01-11T05:24:52.707Z,35.30
2023-01-11T05:27:21.908Z,37.00
2023-01-11T05:30:14.123Z,34.80
2023-01-11T05:33:07.561Z,36.30
2023-01-11T05:35:40.377Z,35.40
2023-01-11T05:38:53.313Z,38.50
2023-01-11T05:41:27.277Z,39.30
2023-01-11T05:44:22.327Z,41.20
2023-01-11T05:46:56.136Z,43.60
2023-01-11T05:49:28.968Z,43.10
2023-01-11T05:52:00.122Z,43.40
2023-01-11T05:54:48.306Z,43.90
2023-01-11T05:57:32.208Z,42.60
2023-01-11T06:00:30.314Z,41.70
2023-01-11T06:03:06.181Z,43.90
2023-01-11T06:05:55.959Z,45.00
2023-01-11T06:15:07.370Z,43.20
2023-01-11T06:18:15.348Z,45.30
2023-01-11T06:21:26.353Z,66.60
2023-01-11T06:23:58.408Z,55.80
2023-01-11T06:27:03.272Z,49.30
2023-01-11T06:40:04.377Z,45.20
2023-01-11T06:43:07.708Z,53.60
2023-01-11T06:48:58.585Z,34.50
2023-01-11T06:51:28.447Z,21.00
2023-01-11T06:53:59.223Z,37.50
2023-01-11T06:56:30.345Z,41.50
2023-01-11T07:02:22.654Z,47.00
2023-01-11T07:04:58.796Z,44.60
2023-01-11T07:07:31.639Z,46.10
2023-01-11T07:23:33.597Z,56.70
2023-01-11T07:26:43.452Z,60.10
2023-01-11T07:32:05.434Z,42.30
2023-01-11T07:35:16.459Z,50.60
2023-01-11T07:37:46.839Z,50.90
2023-01-11T07:40:18.796Z,45.60
2023-01-11T07:43:19.223Z,45.90
2023-01-11T07:45:55.852Z,35.50
2023-01-11T07:48:49.598Z,46.20
2023-01-11T07:51:52.451Z,43.30
2023-01-11T07:54:21.755Z,49.60
2023-01-11T07:57:30.867Z,50.30
2023-01-11T08:00:12.113Z,49.70
2023-01-11T08:02:43.668Z,50.20
2023-01-11T08:08:49.278Z,48.80
2023-01-11T08:12:03.891Z,51.70
2023-01-11T08:14:41.126Z,42.30
2023-01-11T08:17:20.878Z,36.00
2023-01-11T08:19:52.926Z,47.00
2023-01-11T08:22:24.028Z,49.60
2023-01-11T08:26:21.550Z,44.80
2023-01-11T08:29:01.737Z,30.40
2023-01-11T08:32:36.639Z,45.50
2023-01-11T08:36:10.777Z,48.70
2023-01-11T08:42:26.194Z,37.90
2023-01-11T08:44:57.446Z,42.20
2023-01-11T08:48:20.222Z,43.20
2023-01-11T08:50:52.928Z,46.30
2023-01-11T08:54:03.053Z,51.10
2023-01-11T08:56:57.437Z,48.70
2023-01-11T08:59:52.324Z,48.00
2023-01-11T09:02:21.361Z,47.80
2023-01-11T09:17:13.126Z,50.10
2023-01-11T09:23:38.065Z,44.90
2023-01-11T09:36:25.295Z,49.70
2023-01-11T09:38:57.890Z,49.60
2023-01-11T09:45:18.843Z,57.40
2023-01-11T09:55:39.576Z,51.10
2023-01-11T10:18:29.557Z,26.50
2023-01-11T10:22:25.139Z,42.30
2023-01-11T10:32:14.051Z,44.30
2023-01-11T10:35:36.698Z,42.50
2023-01-11T10:39:08.351Z,45.70
2023-01-11T10:48:27.163Z,45.90
2023-01-11T10:54:27.357Z,47.20
2023-01-11T11:04:07.130Z,47.50
2023-01-11T11:20:29.387Z,25.10
2023-01-11T11:23:18.696Z,31.80
2023-01-11T11:26:31.464Z,37.80
2023-01-11T11:32:38.717Z,25.70
2023-01-11T11:35:57.586Z,31.10
2023-01-11T11:38:32.045Z,42.40
2023-01-11T11:42:05.608Z,48.10
2023-01-11T11:44:35.884Z,45.30
2023-01-11T11:47:39.395Z,43.80
2023-01-11T11:50:45.135Z,42.20
2023-01-11T11:53:55.900Z,45.20
2023-01-11T12:03:42.780Z,49.00
2023-01-11T12:06:12.943Z,49.70
2023-01-11T12:12:19.688Z,54.20
2023-01-11T12:15:21.867Z,54.40
2023-01-11T12:17:56.080Z,57.00
2023-01-11T12:24:36.811Z,32.30
2023-01-11T12:43:34.911Z,44.60
2023-01-11T12:49:49.717Z,44.10
2023-01-11T12:52:47.696Z,47.30
2023-01-11T13:25:08.423Z,56.60
2023-01-11T13:27:40.274Z,56.00
2023-01-11T13:33:36.885Z,54.70
2023-01-11T13:40:20.001Z,51.40
2023-01-11T14:26:08.367Z,52.70
2023-01-11T14:36:07.576Z,49.70
2023-01-11T14:39:18.324Z,50.40
2023-01-11T14:45:26.788Z,63.10
2023-01-11T14:48:36.688Z,46.70
2023-01-11T14:54:30.322Z,47.10
2023-01-11T14:59:48.900Z,48.30
2023-01-11T15:02:25.101Z,46.60
2023-01-11T15:04:56.834Z,45.70
2023-01-11T15:21:57.015Z,46.80
2023-01-11T15:28:51.148Z,45.50
2023-01-11T15:44:56.968Z,41.40
2023-01-11T15:47:53.981Z,42.30
2023-01-11T15:51:09.436Z,43.30
2023-01-11T15:53:49.647Z,40.90
2023-01-11T15:56:52.030Z,43.00
2023-01-11T16:04:01.252Z,40.50
2023-01-11T16:06:35.145Z,42.40
2023-01-11T16:09:57.910Z,41.20
2023-01-11T16:13:41.599Z,42.00
2023-01-11T16:16:31.988Z,39.50
2023-01-11T16:22:37.075Z,38.50
2023-01-11T16:25:07.378Z,39.80
2023-01-11T16:28:16.077Z,40.20
2023-01-11T16:30:46.844Z,40.50
2023-01-11T16:33:23.834Z,40.60
2023-01-11T16:36:21.598Z,42.20
2023-01-11T16:39:07.277Z,44.00
2023-01-11T16:42:06.159Z,44.40
2023-01-11T16:48:33.921Z,50.90
2023-01-11T16:57:59.819Z,49.30
2023-01-11T17:03:53.580Z,51.10
2023-01-11T17:09:52.267Z,44.70
2023-01-11T17:12:31.225Z,49.70
2023-01-11T17:15:19.794Z,50.60
2023-01-11T17:17:48.526Z,49.30
2023-01-11T17:20:53.832Z,51.00
2023-01-11T17:27:23.023Z,50.00
2023-01-11T17:30:06.591Z,52.60
2023-01-11T17:33:35.845Z,54.20
2023-01-11T17:39:43.706Z,55.80
2023-01-11T17:43:01.079Z,57.00
2023-01-11T17:45:40.395Z,54.40
2023-01-11T17:52:24.407Z,45.60
2023-01-11T17:55:31.867Z,50.30
2023-01-11T17:58:19.761Z,51.60
2023-01-11T18:01:20.351Z,53.40
2023-01-11T18:04:19.312Z,53.40
2023-01-11T18:07:17.989Z,53.90
2023-01-11T18:23:42.985Z,77.10
2023-01-11T18:32:42.050Z,77.90
2023-01-11T18:35:49.560Z,73.40
2023-01-11T18:42:08.974Z,75.40
2023-01-11T18:44:42.555Z,73.10
2023-01-11T18:47:29.524Z,69.90
2023-01-11T18:49:58.765Z,73.80
2023-01-11T18:52:30.033Z,68.90
2023-01-11T18:55:03.564Z,68.20
2023-01-11T18:57:39.406Z,67.10
2023-01-11T19:00:08.881Z,65.30
2023-01-11T19:02:44.459Z,63.00
2023-01-11T19:05:15.130Z,64.70
2023-01-11T19:07:45.069Z,65.00
2023-01-11T19:10:20.094Z,66.30
2023-01-11T19:12:47.821Z,64.50
2023-01-11T19:15:17.039Z,58.40
2023-01-11T19:17:44.762Z,62.50
2023-01-11T19:20:13.890Z,67.60
2023-01-11T19:22:41.655Z,60.40
2023-01-11T19:25:11.565Z,62.40
2023-01-11T19:27:39.347Z,63.50
2023-01-11T19:30:09.159Z,63.70
2023-01-11T19:32:38.376Z,63.00
2023-01-11T19:35:08.408Z,61.90
2023-01-11T19:37:37.570Z,60.10
2023-01-11T19:40:09.605Z,58.90
2023-01-11T19:42:39.375Z,63.90
2023-01-11T19:45:08.903Z,61.70
2023-01-11T19:47:37.292Z,57.00
2023-01-11T19:50:07.834Z,59.00
2023-01-11T19:52:37.166Z,55.70
2023-01-11T19:55:06.702Z,58.10
2023-01-11T19:57:41.351Z,58.90
2023-01-11T20:00:13.505Z,55.60
2023-01-11T20:05:43.677Z,48.90
2023-01-11T20:08:11.586Z,56.60
2023-01-11T20:10:41.159Z,58.30
2023-01-11T20:13:09.223Z,54.00
2023-01-11T20:15:38.398Z,54.70
2023-01-11T20:18:08.276Z,55.90
2023-01-11T20:20:36.803Z,55.90
2023-01-11T20:23:04.696Z,51.80
2023-01-11T20:25:34.695Z,50.40
2023-01-11T20:28:02.839Z,53.30
2023-01-11T20:30:30.861Z,55.50
2023-01-11T20:32:59.238Z,53.80
2023-01-11T20:35:42.912Z,52.80
2023-01-11T20:38:11.182Z,53.60
2023-01-11T20:40:41.642Z,51.80
2023-01-11T20:43:39.068Z,54.00
2023-01-11T20:46:07.182Z,52.60
2023-01-11T20:48:36.118Z,55.50
2023-01-11T20:51:04.254Z,50.10
2023-01-11T20:53:34.013Z,51.90
2023-01-11T20:56:05.653Z,37.30
2023-01-11T20:58:48.345Z,49.00
2023-01-11T21:01:19.314Z,51.00
2023-01-11T21:03:47.601Z,47.80
2023-01-11T21:06:16.485Z,49.10
2023-01-11T21:08:45.289Z,50.40
2023-01-11T21:11:15.526Z,51.00
2023-01-11T21:13:43.556Z,53.40
2023-01-11T21:16:15.444Z,52.10
2023-01-11T21:18:44.225Z,48.50
2023-01-11T21:21:19.659Z,48.90
2023-01-11T21:23:48.623Z,48.20
2023-01-11T21:26:18.442Z,45.90
2023-01-11T21:28:52.246Z,45.20
2023-01-11T21:31:22.846Z,43.60
2023-01-11T21:47:32.127Z,40.10
2023-01-11T21:50:04.768Z,40.80
2023-01-11T21:52:33.969Z,41.90
2023-01-11T21:55:03.793Z,42.20
2023-01-11T21:57:33.246Z,38.60
2023-01-11T22:00:05.876Z,42.40
2023-01-11T22:02:44.656Z,36.60
2023-01-11T22:05:14.090Z,39.70
2023-01-11T22:07:43.831Z,39.10
2023-01-11T22:10:15.899Z,38.90
2023-01-11T22:12:45.461Z,37.60
2023-01-11T22:15:14.685Z,38.50
2023-01-11T22:17:43.985Z,35.50
2023-01-11T22:20:15.508Z,38.00
2023-01-11T22:22:47.480Z,39.80
2023-01-11T22:25:19.656Z,38.90
2023-01-11T22:27:49.765Z,38.10
2023-01-11T22:30:19.478Z,39.80
2023-01-11T22:32:49.403Z,39.50
2023-01-11T22:35:18.493Z,37.00
2023-01-11T22:40:48.515Z,36.10
2023-01-11T22:43:17.796Z,35.20
2023-01-11T22:46:00.680Z,34.30
2023-01-11T22:48:34.499Z,36.70
2023-01-11T22:51:07.735Z,35.10
2023-01-11T22:53:42.611Z,37.00
2023-01-11T22:56:13.749Z,37.50
2023-01-11T22:58:43.655Z,33.90
2023-01-11T23:01:25.734Z,34.80
2023-01-11T23:06:31.372Z,35.00
2023-01-11T23:09:01.486Z,35.80
2023-01-11T23:11:54.932Z,36.20
2023-01-11T23:14:31.434Z,34.20
2023-01-11T23:17:07.711Z,34.20
2023-01-11T23:19:39.749Z,35.60
2023-01-11T23:22:10.504Z,35.40
2023-01-11T23:24:41.326Z,35.20
2023-01-11T23:27:10.674Z,36.70
2023-01-11T23:29:40.773Z,34.20
2023-01-11T23:32:09.829Z,33.80
2023-01-11T23:34:38.854Z,33.10
2023-01-11T23:37:12.292Z,35.50
2023-01-11T23:39:41.255Z,32.70
2023-01-11T23:43:03.993Z,33.60
2023-01-11T23:45:37.288Z,32.70
2023-01-11T23:48:06.875Z,34.10
2023-01-11T23:50:35.825Z,36.20
2023-01-11T23:53:04.777Z,34.40
2023-01-11T23:55:33.739Z,31.60
2023-01-11T23:58:09.500Z,35.20
